EZE weather

Ministro Pistarini International Airport
Buenos Aires, Buenos Aires Province, Argentina

Public forecast

Using degrees Celsius for public forecast. Weather courtesy of forecast.io.

METAR (pilot weather report)

Retrieved 2018/09/22 19:00 UTC (2 minutes ago):

SAEZ 221900Z 22004KT 8000 TS VCSH SCT034 FEW045CB BKN100 25/25 Q0998 TEMPO 5000 SCT030 FEW045CB BKN100 RMK CB OBS TO W

TAF (pilot weather forecast)

Retrieved 2018/09/22 18:13 UTC (49 minutes ago):

TAF SAEZ 221700Z 2218/2318 36015KT 5000 TSRA SCT040 FEW040CB OVC100 TX27/2218Z TN13/2310Z TEMPO 2219/2221 23015G25KT 2000 +TSRA BKN030 OVC040 FEW045CB BECMG 2221/2222 14005KT 9999 NSW SCT020 SCT030 BECMG 2305/2307 VRB03KT 3000 BR BECMG 2309/2311 0800 FG BKN010 BECMG 2312/2315 16010KT CAVOK